Time;durP1;ratioP1;P1;durP2;ratioP2;P2;SDS_P1;SDS_P2;PMS_P1;PMS_P2;Temp;Humidity;BMP_temperature;BMP_pressure;BME280_temperature;BME280_humidity;BME280_pressure;Samples;Min_cycle;Max_cycle;Signal;HPM_P1;HPM_P2
2022/11/15 00:01:14;;;;;;;24.00;15.80;;;7.70;99.90;;;;;;5037539;28;20475;-59
2022/11/15 00:03:41;;;;;;;32.33;16.03;;;7.70;99.90;;;;;;5037881;28;20460;-62
2022/11/15 00:06:10;;;;;;;27.90;18.27;;;7.70;99.90;;;;;;5037971;28;20440;-59
2022/11/15 00:08:37;;;;;;;34.10;17.43;;;7.70;99.90;;;;;;5037696;28;20483;-56
2022/11/15 00:11:07;;;;;;;27.23;16.17;;;7.70;99.90;;;;;;5037907;28;20455;-56
2022/11/15 00:13:37;;;;;;;21.57;12.67;;;7.70;99.90;;;;;;5037702;28;20465;-57
2022/11/15 00:16:04;;;;;;;33.07;15.07;;;7.70;99.90;;;;;;5037366;28;20496;-60
2022/11/15 00:18:32;;;;;;;32.27;14.87;;;7.70;99.90;;;;;;5037305;28;20452;-54
2022/11/15 00:21:05;;;;;;;32.93;15.10;;;7.70;99.90;;;;;;5037863;28;20493;-56
2022/11/15 00:23:33;;;;;;;26.00;14.37;;;7.70;99.90;;;;;;5037965;28;20449;-64
2022/11/15 00:26:03;;;;;;;26.50;15.10;;;7.60;99.90;;;;;;5037656;28;20461;-57
2022/11/15 00:28:31;;;;;;;22.23;13.70;;;7.60;99.90;;;;;;5037834;28;20468;-58
2022/11/15 00:31:02;;;;;;;28.33;15.70;;;7.60;99.90;;;;;;5037011;28;20549;-57
2022/11/15 00:33:29;;;;;;;30.40;15.77;;;7.60;99.90;;;;;;5035329;28;20498;-56
2022/11/15 00:36:02;;;;;;;25.90;14.63;;;7.60;99.90;;;;;;5037288;28;20413;-57
2022/11/15 00:38:32;;;;;;;24.90;13.50;;;7.60;99.90;;;;;;5037560;28;20453;-60
2022/11/15 00:40:59;;;;;;;26.13;14.77;;;7.50;99.90;;;;;;5037537;28;20469;-65
2022/11/15 00:43:29;;;;;;;30.93;15.40;;;7.50;99.90;;;;;;5037124;28;20456;-58
2022/11/15 00:45:56;;;;;;;29.30;16.00;;;7.50;99.90;;;;;;5037079;28;20464;-63
2022/11/15 00:48:26;;;;;;;31.67;15.40;;;7.50;99.90;;;;;;5037460;28;20441;-55
2022/11/15 00:50:53;;;;;;;29.03;15.97;;;7.50;99.90;;;;;;5025124;28;20493;-56
2022/11/15 00:53:21;;;;;;;26.50;16.20;;;7.60;99.90;;;;;;5036647;28;20441;-59
2022/11/15 00:55:48;;;;;;;25.03;15.43;;;7.50;99.90;;;;;;5036980;28;20441;-57
2022/11/15 00:58:17;;;;;;;29.23;14.60;;;7.50;99.90;;;;;;5037172;28;20433;-57
2022/11/15 01:00:44;;;;;;;23.10;12.87;;;7.50;99.90;;;;;;5036904;28;20441;-55
2022/11/15 01:03:11;;;;;;;32.70;16.80;;;7.50;99.90;;;;;;5036863;28;20469;-51
2022/11/15 01:05:38;;;;;;;26.50;14.23;;;7.50;99.90;;;;;;5037410;28;20425;-57
2022/11/15 01:08:05;;;;;;;26.70;15.17;;;7.50;99.90;;;;;;5024781;28;20445;-59
2022/11/15 01:10:33;;;;;;;26.10;14.70;;;7.50;99.90;;;;;;5033845;28;20512;-57
2022/11/15 01:13:00;;;;;;;34.77;15.47;;;7.40;99.90;;;;;;5027368;28;20452;-57
2022/11/15 01:15:27;;;;;;;34.73;16.93;;;7.40;99.90;;;;;;5036685;28;20461;-57
2022/11/15 01:17:54;;;;;;;25.93;14.87;;;7.40;99.90;;;;;;5030939;28;20491;-61
2022/11/15 01:20:21;;;;;;;29.40;16.50;;;7.40;99.90;;;;;;5031279;28;20508;-60
2022/11/15 01:22:48;;;;;;;29.30;16.07;;;7.30;99.90;;;;;;5037101;28;20516;-60
2022/11/15 01:25:15;;;;;;;25.70;14.40;;;7.30;99.90;;;;;;5036735;28;20452;-59
2022/11/15 01:27:43;;;;;;;30.80;17.37;;;7.30;99.90;;;;;;5036790;28;20449;-62
2022/11/15 01:30:11;;;;;;;26.33;14.17;;;7.30;99.90;;;;;;5036770;28;20520;-58
2022/11/15 01:32:38;;;;;;;32.40;17.17;;;7.30;99.90;;;;;;5037105;28;20452;-58
2022/11/15 01:35:05;;;;;;;35.83;17.93;;;7.30;99.90;;;;;;5036710;28;20472;-60
2022/11/15 01:37:32;;;;;;;30.33;16.27;;;7.20;99.90;;;;;;5036663;28;20504;-55
2022/11/15 01:39:59;;;;;;;28.50;15.53;;;7.30;99.90;;;;;;5036881;28;20457;-61
2022/11/15 01:42:26;;;;;;;22.07;12.97;;;7.20;99.90;;;;;;5036937;28;20465;-57
2022/11/15 01:44:54;;;;;;;27.17;17.20;;;7.20;99.90;;;;;;5032693;28;20468;-61
2022/11/15 01:47:25;;;;;;;25.13;14.53;;;7.20;99.90;;;;;;5030326;28;20510;-59
2022/11/15 01:49:58;;;;;;;24.20;15.77;;;7.20;99.90;;;;;;5035310;28;20890;-60
2022/11/15 01:52:27;;;;;;;26.67;14.50;;;7.20;99.90;;;;;;5036758;28;20468;-56
2022/11/15 01:55:00;;;;;;;37.43;16.40;;;7.20;99.90;;;;;;5035607;28;20449;-60
2022/11/15 01:57:27;;;;;;;29.73;15.60;;;7.10;99.90;;;;;;5035944;28;20461;-57
2022/11/15 01:59:56;;;;;;;30.27;17.50;;;7.20;99.90;;;;;;5035763;28;20901;-57
2022/11/15 02:02:23;;;;;;;26.43;16.17;;;7.20;99.90;;;;;;5035511;28;20445;-55
2022/11/15 02:04:49;;;;;;;29.37;14.37;;;7.20;99.90;;;;;;5035410;28;20480;-57
2022/11/15 02:07:19;;;;;;;29.07;15.50;;;7.20;99.90;;;;;;5035105;28;20429;-59
2022/11/15 02:09:46;;;;;;;28.57;14.93;;;7.10;99.90;;;;;;5035453;28;20449;-55
2022/11/15 02:12:17;;;;;;;31.40;16.77;;;7.10;99.90;;;;;;5035131;28;20488;-59
2022/11/15 02:14:47;;;;;;;27.23;15.93;;;7.10;99.90;;;;;;5035376;28;20456;-57
2022/11/15 02:17:27;;;;;;;21.53;12.60;;;7.10;99.90;;;;;;5035452;28;20523;-57
2022/11/15 02:20:33;;;;;;;27.80;15.93;;;7.10;99.90;;;;;;5035586;28;20441;-57
2022/11/15 02:23:21;;;;;;;28.67;15.97;;;7.10;99.90;;;;;;5005815;28;20513;-56
2022/11/15 02:26:02;;;;;;;24.10;12.90;;;7.10;99.90;;;;;;5035702;28;20453;-59
2022/11/15 02:28:46;;;;;;;25.83;15.07;;;7.10;99.90;;;;;;5036220;28;20421;-56
2022/11/15 02:31:24;;;;;;;27.53;14.03;;;7.10;99.90;;;;;;5035687;28;20456;-55
2022/11/15 02:33:56;;;;;;;25.90;15.20;;;7.10;99.90;;;;;;5034872;28;20437;-59
2022/11/15 02:36:34;;;;;;;26.30;15.07;;;7.10;99.90;;;;;;5035080;28;20484;-57
2022/11/15 02:39:08;;;;;;;35.37;17.43;;;7.00;99.90;;;;;;5035382;28;20496;-54
2022/11/15 02:41:46;;;;;;;26.10;13.37;;;7.00;99.90;;;;;;5035180;28;20449;-59
2022/11/15 02:44:17;;;;;;;29.60;15.07;;;7.10;99.90;;;;;;5035337;28;20456;-59
2022/11/15 02:49:37;;;;;;;28.07;15.87;;;7.00;99.90;;;;;;5035681;28;20484;-59
2022/11/15 02:52:06;;;;;;;29.30;14.93;;;7.10;99.90;;;;;;5023109;28;20449;-60
2022/11/15 02:54:34;;;;;;;31.67;15.80;;;7.00;99.90;;;;;;5034894;28;20465;-59
2022/11/15 02:57:05;;;;;;;38.23;14.50;;;7.00;99.90;;;;;;5034945;28;20457;-53
2022/11/15 03:00:06;;;;;;;28.80;14.80;;;7.00;99.90;;;;;;5036161;28;20426;-57
2022/11/15 03:02:57;;;;;;;29.53;14.80;;;7.00;99.90;;;;;;4998853;28;20483;-58
2022/11/15 03:05:29;;;;;;;27.23;16.00;;;6.90;99.90;;;;;;4998411;28;20470;-56
2022/11/15 03:08:08;;;;;;;25.40;15.00;;;6.90;99.90;;;;;;5025251;28;20488;-59
2022/11/15 03:10:46;;;;;;;36.60;16.97;;;7.00;99.90;;;;;;5039126;28;20440;-57
2022/11/15 03:13:22;;;;;;;26.30;15.30;;;7.00;99.90;;;;;;5039178;28;20468;-55
2022/11/15 03:15:54;;;;;;;27.30;14.43;;;7.00;99.90;;;;;;5039036;28;20440;-58
2022/11/15 03:18:28;;;;;;;30.10;15.67;;;7.00;99.90;;;;;;5039038;28;20488;-54
2022/11/15 03:21:01;;;;;;;25.57;15.47;;;6.90;99.90;;;;;;5039360;28;20465;-60
2022/11/15 03:23:30;;;;;;;23.60;14.10;;;7.00;99.90;;;;;;5038738;28;20433;-64
2022/11/15 03:26:02;;;;;;;27.03;14.30;;;7.00;99.90;;;;;;5038816;28;20484;-62
2022/11/15 03:28:34;;;;;;;32.07;15.50;;;6.90;99.90;;;;;;5027606;28;20735;-58
2022/11/15 03:31:46;;;;;;;26.10;15.43;;;6.90;99.90;;;;;;5038782;28;20433;-52
2022/11/15 03:33:53;;;;;;;29.73;15.20;;;6.90;99.90;;;;;;5037462;28;20459;-58
2022/11/15 03:36:22;;;;;;;33.67;18.47;;;6.90;99.90;;;;;;5027854;28;20453;-58
2022/11/15 03:38:50;;;;;;;30.20;14.67;;;6.90;99.90;;;;;;5038181;28;20508;-58
2022/11/15 03:41:22;;;;;;;34.23;17.77;;;6.90;99.90;;;;;;5038405;28;20472;-58
2022/11/15 03:43:56;;;;;;;31.90;15.70;;;6.90;99.90;;;;;;5038600;28;20476;-57
2022/11/15 03:46:28;;;;;;;30.80;17.03;;;6.90;99.90;;;;;;5026673;28;20475;-57
2022/11/15 03:49:07;;;;;;;31.57;15.03;;;6.90;99.90;;;;;;5037754;28;20456;-57
2022/11/15 03:51:34;;;;;;;23.07;13.47;;;6.90;99.90;;;;;;5037735;28;20436;-58
2022/11/15 03:54:04;;;;;;;24.70;15.63;;;6.90;99.90;;;;;;5038325;28;20786;-54
2022/11/15 03:56:31;;;;;;;38.40;14.57;;;6.90;99.90;;;;;;5038587;28;20449;-59
2022/11/15 03:58:59;;;;;;;26.27;15.40;;;6.90;99.90;;;;;;5038363;28;20468;-58
2022/11/15 04:01:26;;;;;;;30.13;16.40;;;7.00;99.90;;;;;;5038456;28;20456;-58
2022/11/15 04:03:54;;;;;;;24.80;14.83;;;7.00;99.90;;;;;;5037715;28;20442;-58
2022/11/15 04:06:22;;;;;;;27.70;16.53;;;7.00;99.90;;;;;;5038201;28;20459;-56
2022/11/15 04:08:49;;;;;;;26.23;15.33;;;7.00;99.90;;;;;;5038077;28;20465;-59
2022/11/15 04:11:16;;;;;;;23.13;13.43;;;7.00;99.90;;;;;;5036874;28;20968;-59
2022/11/15 04:13:43;;;;;;;29.87;16.00;;;7.00;99.90;;;;;;5037888;28;20445;-55
2022/11/15 04:16:10;;;;;;;28.50;16.63;;;7.00;99.90;;;;;;5037443;28;20475;-59
2022/11/15 04:18:37;;;;;;;28.13;16.30;;;6.90;99.90;;;;;;5038189;28;20477;-57
2022/11/15 04:26:37;;;;;;;26.37;14.37;;;6.90;99.90;;;;;;5038501;28;20393;-63
2022/11/15 04:31:40;;;;;;;26.93;15.67;;;7.00;99.90;;;;;;1335228;26;20479;-61
2022/11/15 04:34:07;;;;;;;26.30;15.23;;;7.00;99.90;;;;;;5049526;28;20480;-57
2022/11/15 04:39:19;;;;;;;24.83;14.37;;;7.00;99.90;;;;;;5056490;28;20427;-58
2022/11/15 04:41:46;;;;;;;28.57;15.40;;;7.00;99.90;;;;;;5055974;28;20432;-57
2022/11/15 04:44:13;;;;;;;23.83;14.43;;;7.00;99.90;;;;;;5056044;28;20456;-56
2022/11/15 04:46:40;;;;;;;30.70;14.90;;;7.00;99.90;;;;;;5055877;28;20479;-55
2022/11/15 04:49:07;;;;;;;31.17;15.60;;;7.00;99.90;;;;;;5055779;28;20451;-58
2022/11/15 04:51:33;;;;;;;24.50;14.60;;;7.00;99.90;;;;;;5055084;28;20452;-63
2022/11/15 04:54:00;;;;;;;27.47;15.40;;;7.00;99.90;;;;;;5055660;28;20463;-55
2022/11/15 04:56:29;;;;;;;30.83;17.03;;;7.00;99.90;;;;;;5054706;28;20440;-60
2022/11/15 04:58:55;;;;;;;25.83;14.57;;;7.00;99.90;;;;;;5052287;28;20484;-59
2022/11/15 05:01:22;;;;;;;39.87;16.67;;;7.00;99.90;;;;;;5054177;28;20471;-56
2022/11/15 05:06:34;;;;;;;30.77;14.27;;;6.90;99.90;;;;;;5051300;28;20467;-52
2022/11/15 05:09:01;;;;;;;28.33;16.37;;;6.90;99.90;;;;;;5054873;28;20456;-58
2022/11/15 05:11:29;;;;;;;25.20;14.60;;;6.90;99.90;;;;;;5055549;28;20488;-51
2022/11/15 05:13:56;;;;;;;33.07;17.10;;;6.90;99.90;;;;;;5043618;28;20464;-58
2022/11/15 05:16:23;;;;;;;32.50;14.50;;;6.90;99.90;;;;;;5054015;28;20440;-57
2022/11/15 05:18:52;;;;;;;37.20;16.57;;;7.00;99.90;;;;;;5057498;28;20480;-55
2022/11/15 05:21:19;;;;;;;31.57;18.13;;;6.90;99.90;;;;;;5057485;28;20483;-59
2022/11/15 05:23:49;;;;;;;29.23;15.60;;;7.00;99.90;;;;;;5056171;28;20468;-54
2022/11/15 05:26:18;;;;;;;27.00;14.23;;;7.00;99.90;;;;;;5056946;28;20460;-56
2022/11/15 05:28:46;;;;;;;31.20;15.50;;;7.00;99.90;;;;;;5056959;28;20469;-59
2022/11/15 05:31:15;;;;;;;28.83;14.53;;;7.00;99.90;;;;;;5056771;28;20467;-50
2022/11/15 05:33:44;;;;;;;28.57;14.60;;;7.00;99.90;;;;;;5056329;28;20463;-58
2022/11/15 05:36:16;;;;;;;26.83;14.60;;;7.00;99.90;;;;;;5042518;28;20539;-57
2022/11/15 05:38:43;;;;;;;26.83;16.70;;;6.90;99.90;;;;;;5054453;28;21205;-62
2022/11/15 05:41:11;;;;;;;33.50;17.00;;;6.90;99.90;;;;;;5050567;28;20802;-62
2022/11/15 05:43:40;;;;;;;25.80;15.43;;;6.90;99.90;;;;;;5045481;28;20494;-60
2022/11/15 05:46:08;;;;;;;30.20;17.00;;;6.90;99.90;;;;;;5054595;28;20456;-56
2022/11/15 05:48:37;;;;;;;27.90;15.97;;;6.80;99.90;;;;;;5055402;28;20463;-53
2022/11/15 05:51:05;;;;;;;27.70;15.33;;;6.80;99.90;;;;;;5054746;28;20480;-55
2022/11/15 05:53:32;;;;;;;32.70;16.07;;;6.80;99.90;;;;;;5054334;28;20464;-57
2022/11/15 05:55:59;;;;;;;26.07;14.10;;;6.80;99.90;;;;;;5046231;28;20468;-53
2022/11/15 05:58:26;;;;;;;27.70;15.60;;;6.80;99.90;;;;;;5045465;28;20490;-54
2022/11/15 06:00:54;;;;;;;28.57;16.83;;;6.80;99.90;;;;;;5053796;28;20468;-52
2022/11/15 06:03:23;;;;;;;29.03;15.40;;;6.90;99.90;;;;;;5041971;28;20528;-51
2022/11/15 06:05:49;;;;;;;31.87;15.83;;;6.90;99.90;;;;;;5054394;28;20443;-57
2022/11/15 06:08:16;;;;;;;30.70;16.63;;;6.90;99.90;;;;;;5052035;28;20488;-53
2022/11/15 06:10:43;;;;;;;29.33;16.17;;;7.00;99.90;;;;;;5053090;28;20474;-58
2022/11/15 06:13:10;;;;;;;28.37;15.07;;;6.90;99.90;;;;;;5053307;28;20480;-52
2022/11/15 06:15:37;;;;;;;23.57;14.27;;;6.90;99.90;;;;;;5053371;28;20432;-54
2022/11/15 06:18:04;;;;;;;25.83;14.40;;;7.00;99.90;;;;;;5053494;28;20483;-58
2022/11/15 06:20:32;;;;;;;32.60;17.43;;;6.90;99.90;;;;;;5054628;28;20460;-54
2022/11/15 06:23:00;;;;;;;29.93;14.27;;;6.90;99.90;;;;;;5054157;28;20448;-56
2022/11/15 06:25:27;;;;;;;39.20;16.70;;;6.90;99.90;;;;;;5052198;28;20472;-55
2022/11/15 06:27:54;;;;;;;33.37;16.73;;;6.90;99.90;;;;;;5054633;28;20448;-54
2022/11/15 06:30:21;;;;;;;36.73;17.37;;;6.90;99.90;;;;;;5052137;28;20460;-59
2022/11/15 06:32:48;;;;;;;29.47;16.10;;;6.90;99.90;;;;;;5052015;28;20499;-55
2022/11/15 06:35:15;;;;;;;30.90;15.87;;;7.00;99.90;;;;;;5046455;28;20465;-56
2022/11/15 06:37:43;;;;;;;32.97;15.80;;;7.00;99.90;;;;;;5035399;28;20555;-60
2022/11/15 06:40:11;;;;;;;28.17;14.70;;;7.00;99.90;;;;;;5052908;28;20440;-53
2022/11/15 06:42:38;;;;;;;33.57;16.40;;;7.00;99.90;;;;;;5053755;28;20447;-60
2022/11/15 06:45:06;;;;;;;26.00;15.27;;;7.00;99.90;;;;;;5051511;28;20491;-59
2022/11/15 06:47:33;;;;;;;28.07;15.90;;;7.00;99.90;;;;;;5053308;28;20460;-59
2022/11/15 06:50:00;;;;;;;28.80;15.27;;;7.00;99.90;;;;;;5039977;28;20470;-58
2022/11/15 06:52:32;;;;;;;33.20;17.80;;;7.00;99.90;;;;;;5071080;28;20447;-58
2022/11/15 06:55:00;;;;;;;33.87;15.10;;;7.00;99.90;;;;;;5068472;28;20532;-56
2022/11/15 06:57:27;;;;;;;26.10;14.43;;;7.00;99.90;;;;;;5053441;28;20479;-54
2022/11/15 06:59:54;;;;;;;28.10;14.77;;;7.00;99.90;;;;;;5052206;28;20484;-59
2022/11/15 07:02:20;;;;;;;29.30;15.23;;;7.00;99.90;;;;;;5053590;28;20458;-49
2022/11/15 07:04:47;;;;;;;25.03;15.33;;;7.00;99.90;;;;;;5052793;28;20424;-63
2022/11/15 07:07:14;;;;;;;31.50;17.60;;;7.00;99.90;;;;;;5071734;28;20442;-62
2022/11/15 07:09:41;;;;;;;24.30;13.30;;;7.10;99.90;;;;;;5050119;28;20477;-60
2022/11/15 07:12:09;;;;;;;31.07;14.53;;;7.10;99.90;;;;;;5053741;28;20443;-60
2022/11/15 07:14:36;;;;;;;28.80;13.93;;;7.10;99.90;;;;;;5047077;28;20932;-60
2022/11/15 07:17:04;;;;;;;30.27;15.30;;;7.10;99.90;;;;;;5049825;28;20428;-55
2022/11/15 07:19:31;;;;;;;27.13;14.60;;;7.20;99.90;;;;;;5046410;28;20575;-49
2022/11/15 07:22:10;;;;;;;28.63;14.07;;;7.20;99.90;;;;;;5052779;28;20480;-55
2022/11/15 07:24:37;;;;;;;25.57;14.13;;;7.30;99.90;;;;;;5047516;28;20467;-62
2022/11/15 07:27:04;;;;;;;29.67;15.53;;;7.30;99.90;;;;;;5044493;28;20475;-50
2022/11/15 07:29:32;;;;;;;31.67;15.20;;;7.30;99.90;;;;;;5053424;28;20802;-55
2022/11/15 07:31:59;;;;;;;27.47;13.60;;;7.40;99.90;;;;;;5053480;28;20456;-59
2022/11/15 07:34:26;;;;;;;28.50;15.40;;;7.40;99.90;;;;;;5053345;28;20462;-58
2022/11/15 07:36:53;;;;;;;27.53;14.03;;;7.40;99.90;;;;;;5055039;28;20448;-58
2022/11/15 07:39:20;;;;;;;27.60;14.20;;;7.40;99.90;;;;;;5053205;28;20496;-56
2022/11/15 07:41:47;;;;;;;27.17;14.80;;;7.50;99.90;;;;;;5053662;28;20463;-55
2022/11/15 07:44:14;;;;;;;35.00;16.50;;;7.60;99.90;;;;;;5053559;28;20483;-59
2022/11/15 07:46:43;;;;;;;32.17;17.97;;;7.60;99.90;;;;;;5051905;28;20468;-52
2022/11/15 07:49:09;;;;;;;23.37;14.17;;;7.70;99.90;;;;;;5053563;28;20436;-60
2022/11/15 07:51:36;;;;;;;28.50;13.67;;;7.70;99.90;;;;;;5047278;28;20463;-57
2022/11/15 07:54:03;;;;;;;30.63;17.70;;;8.30;99.90;;;;;;5055626;28;20467;-57
2022/11/15 07:56:30;;;;;;;33.60;18.10;;;8.50;99.90;;;;;;5049833;28;20479;-62
2022/11/15 07:58:59;;;;;;;28.60;15.37;;;8.50;99.90;;;;;;5053692;28;20515;-61
2022/11/15 08:01:25;;;;;;;22.97;15.20;;;8.40;99.90;;;;;;5056588;28;20488;-62
2022/11/15 08:03:54;;;;;;;37.20;18.00;;;8.40;99.90;;;;;;5057049;28;20447;-56
2022/11/15 08:06:20;;;;;;;27.23;15.10;;;8.40;99.90;;;;;;5057537;28;20436;-56
2022/11/15 08:08:48;;;;;;;30.73;14.70;;;8.40;99.90;;;;;;5057354;28;20463;-52
2022/11/15 08:11:15;;;;;;;27.70;16.47;;;8.30;99.90;;;;;;5057290;28;20483;-58
2022/11/15 08:13:42;;;;;;;27.10;15.03;;;8.30;99.90;;;;;;5056693;28;20428;-58
2022/11/15 08:16:11;;;;;;;30.60;15.97;;;8.40;99.90;;;;;;5057592;28;20458;-50
2022/11/15 08:18:38;;;;;;;25.70;15.33;;;8.40;99.90;;;;;;5057123;28;20479;-58
2022/11/15 08:21:07;;;;;;;24.30;14.37;;;8.50;99.90;;;;;;5058434;28;20429;-61
2022/11/15 08:23:33;;;;;;;33.20;16.80;;;8.50;99.90;;;;;;5056843;28;20472;-55
2022/11/15 08:26:02;;;;;;;31.80;16.63;;;8.50;99.90;;;;;;5044002;28;20456;-62
2022/11/15 08:28:29;;;;;;;30.03;15.60;;;8.60;99.90;;;;;;5056331;28;20448;-54
2022/11/15 08:30:56;;;;;;;23.40;15.83;;;8.60;99.90;;;;;;5056990;28;20436;-57
2022/11/15 08:33:23;;;;;;;26.17;14.50;;;8.60;99.90;;;;;;5056009;28;20452;-57
2022/11/15 08:35:50;;;;;;;28.23;15.93;;;8.70;99.90;;;;;;5043526;28;20495;-57
2022/11/15 08:38:18;;;;;;;33.57;15.57;;;8.80;99.90;;;;;;5051866;28;20479;-61
2022/11/15 08:40:45;;;;;;;26.60;15.80;;;8.90;99.90;;;;;;5048583;28;20476;-59
2022/11/15 08:43:12;;;;;;;25.47;14.83;;;8.90;99.90;;;;;;5056284;28;20432;-59
2022/11/15 08:45:39;;;;;;;29.20;16.37;;;9.00;99.90;;;;;;5056151;28;20720;-61
2022/11/15 08:48:06;;;;;;;28.63;15.03;;;9.10;99.90;;;;;;5055903;28;20479;-56
2022/11/15 08:50:33;;;;;;;40.37;16.63;;;9.20;99.90;;;;;;5056099;28;20458;-56
2022/11/15 08:53:05;;;;;;;31.60;15.80;;;9.20;99.90;;;;;;5056420;28;20468;-53
2022/11/15 08:55:36;;;;;;;26.33;14.63;;;9.30;99.90;;;;;;5056937;28;20429;-58
2022/11/15 08:58:03;;;;;;;27.87;15.33;;;9.40;99.90;;;;;;5055498;28;20547;-56
2022/11/15 09:00:30;;;;;;;27.60;13.70;;;9.40;99.90;;;;;;5056558;28;20540;-50
2022/11/15 09:02:57;;;;;;;28.37;14.37;;;9.50;99.90;;;;;;5055230;28;20432;-57
2022/11/15 09:05:24;;;;;;;23.67;14.70;;;9.60;99.90;;;;;;5048463;28;20530;-59
2022/11/15 09:07:54;;;;;;;20.73;13.60;;;9.70;99.90;;;;;;5049125;28;20448;-57
2022/11/15 09:10:21;;;;;;;23.63;13.30;;;9.80;99.90;;;;;;5054893;28;20493;-57
2022/11/15 09:12:50;;;;;;;23.83;14.20;;;10.00;99.90;;;;;;5054893;28;20440;-61
2022/11/15 09:15:17;;;;;;;20.90;11.67;;;10.10;99.90;;;;;;5054889;28;20821;-57
2022/11/15 09:17:44;;;;;;;21.50;12.50;;;10.30;99.90;;;;;;5053929;28;20491;-61
2022/11/15 09:20:11;;;;;;;22.90;12.97;;;10.50;99.90;;;;;;5054237;28;20471;-57
2022/11/15 09:22:38;;;;;;;21.90;12.17;;;11.00;99.90;;;;;;5054460;28;20448;-52
2022/11/15 09:25:07;;;;;;;23.70;13.50;;;11.90;99.90;;;;;;5055006;28;20440;-56
2022/11/15 09:27:33;;;;;;;18.57;11.40;;;12.90;99.90;;;;;;5055224;28;20447;-55
2022/11/15 09:30:02;;;;;;;13.93;11.03;;;13.80;99.90;;;;;;5054366;28;20464;-55
2022/11/15 09:32:30;;;;;;;13.70;9.40;;;14.30;99.90;;;;;;5054537;28;20463;-61
2022/11/15 09:34:57;;;;;;;16.93;10.47;;;14.70;99.90;;;;;;5054223;28;20455;-58
2022/11/15 09:37:24;;;;;;;17.27;10.10;;;15.10;99.90;;;;;;5055315;28;20451;-56
2022/11/15 09:39:51;;;;;;;18.80;10.60;;;15.50;99.90;;;;;;5055064;28;21043;-60
2022/11/15 09:42:34;;;;;;;13.50;9.67;;;15.90;99.90;;;;;;5055688;28;20477;-56
2022/11/15 09:45:16;;;;;;;16.30;10.40;;;16.10;99.90;;;;;;5039850;28;20439;-57
2022/11/15 09:48:14;;;;;;;15.07;10.63;;;16.10;99.90;;;;;;5054100;28;20468;-58
2022/11/15 09:50:46;;;;;;;20.33;10.90;;;16.00;99.90;;;;;;5034710;28;20443;-56
2022/11/15 09:53:18;;;;;;;14.77;10.20;;;16.20;99.90;;;;;;5054855;28;20433;-60
2022/11/15 09:55:52;;;;;;;17.87;11.27;;;16.50;99.90;;;;;;5054868;28;20432;-56
2022/11/15 09:58:27;;;;;;;14.73;11.07;;;16.80;99.90;;;;;;5054343;28;20429;-56
2022/11/15 10:01:00;;;;;;;17.20;11.10;;;17.30;99.90;;;;;;5054117;28;20471;-62
2022/11/15 10:03:32;;;;;;;18.00;11.10;;;17.90;99.90;;;;;;5054020;28;20448;-56
2022/11/15 10:06:02;;;;;;;15.33;10.10;;;18.30;99.90;;;;;;5054619;28;20487;-52
2022/11/15 10:08:46;;;;;;;13.00;9.60;;;18.80;99.90;;;;;;5055224;28;20468;-59
2022/11/15 10:11:20;;;;;;;13.90;9.27;;;19.00;99.90;;;;;;5054778;28;20428;-58
2022/11/15 10:13:49;;;;;;;13.57;9.90;;;19.10;99.90;;;;;;5054446;28;20468;-54
2022/11/15 10:16:33;;;;;;;18.77;10.73;;;19.20;99.90;;;;;;5054464;28;20432;-59
2022/11/15 10:19:10;;;;;;;15.00;9.83;;;19.30;99.90;;;;;;5054514;28;21104;-56
2022/11/15 10:21:47;;;;;;;16.43;9.50;;;19.40;99.90;;;;;;5054307;28;20440;-63
2022/11/15 10:24:20;;;;;;;13.83;9.87;;;19.30;99.90;;;;;;5054314;28;20467;-58
2022/11/15 10:26:48;;;;;;;21.67;12.33;;;19.10;99.90;;;;;;5054518;28;20428;-61
2022/11/15 10:29:20;;;;;;;19.50;11.57;;;19.10;99.90;;;;;;5054295;28;20437;-62
2022/11/15 10:31:48;;;;;;;18.97;10.23;;;18.90;99.90;;;;;;5054191;28;20506;-59
2022/11/15 10:34:18;;;;;;;14.73;10.57;;;18.70;99.90;;;;;;5042385;28;20835;-63
2022/11/15 10:36:45;;;;;;;17.30;10.40;;;18.50;99.90;;;;;;5053268;28;20475;-60
2022/11/15 10:39:14;;;;;;;12.37;9.57;;;18.10;99.90;;;;;;5053990;28;20486;-55
2022/11/15 10:41:42;;;;;;;12.67;10.47;;;17.90;99.90;;;;;;5054168;28;20445;-60
2022/11/15 10:44:22;;;;;;;13.77;8.87;;;17.70;99.90;;;;;;5047403;28;20498;-62
2022/11/15 10:47:20;;;;;;;18.47;11.47;;;17.30;99.90;;;;;;5049646;28;20440;-61
2022/11/15 10:49:59;;;;;;;16.20;11.50;;;16.80;99.90;;;;;;5050622;28;20480;-59
2022/11/15 10:52:26;;;;;;;19.70;11.43;;;16.30;99.90;;;;;;5053613;28;20439;-61
2022/11/15 10:54:57;;;;;;;18.87;10.80;;;15.80;99.90;;;;;;5053047;28;20479;-62
2022/11/15 10:57:27;;;;;;;17.40;10.60;;;15.50;99.90;;;;;;5042654;28;20433;-54
2022/11/15 10:59:57;;;;;;;16.10;9.73;;;15.10;99.90;;;;;;5054085;28;20463;-59
2022/11/15 11:02:37;;;;;;;16.07;9.70;;;14.80;99.90;;;;;;5053472;28;20471;-58
2022/11/15 11:05:06;;;;;;;15.03;9.80;;;14.50;99.90;;;;;;5053527;28;20416;-60
2022/11/15 11:07:35;;;;;;;14.57;9.80;;;14.40;99.90;;;;;;5053520;28;20468;-58
2022/11/15 11:10:05;;;;;;;22.40;10.40;;;14.20;99.90;;;;;;5052825;28;20502;-58
2022/11/15 11:12:33;;;;;;;19.30;10.40;;;14.10;99.90;;;;;;5053157;28;20482;-59
2022/11/15 11:15:03;;;;;;;15.37;11.00;;;14.00;99.90;;;;;;5053067;28;20475;-61
2022/11/15 11:17:50;;;;;;;15.20;8.97;;;13.90;99.90;;;;;;5052912;28;20435;-55
2022/11/15 11:20:23;;;;;;;18.13;10.77;;;13.90;99.90;;;;;;5052550;28;20503;-62
2022/11/15 11:23:02;;;;;;;21.80;10.50;;;13.80;99.90;;;;;;5057349;28;20424;-61
2022/11/15 11:25:35;;;;;;;17.23;9.77;;;13.70;99.90;;;;;;5057294;28;20519;-57
2022/11/15 11:28:24;;;;;;;19.27;11.27;;;13.60;99.90;;;;;;5056244;28;20444;-61
2022/11/15 11:31:01;;;;;;;15.50;9.37;;;13.60;99.90;;;;;;5049139;28;20484;-59
2022/11/15 11:33:33;;;;;;;16.33;9.87;;;13.60;99.90;;;;;;5056181;28;20467;-57
2022/11/15 11:36:11;;;;;;;19.73;10.93;;;13.60;99.90;;;;;;5050395;28;20440;-58
2022/11/15 11:38:57;;;;;;;16.50;9.43;;;13.60;99.90;;;;;;5053517;28;20483;-57
2022/11/15 11:41:47;;;;;;;15.43;9.73;;;13.60;99.90;;;;;;5056695;28;20475;-55
2022/11/15 11:44:31;;;;;;;16.13;9.77;;;13.60;99.90;;;;;;5056935;28;20543;-54
2022/11/15 11:47:01;;;;;;;13.97;9.00;;;13.60;99.90;;;;;;5056888;28;20463;-57
2022/11/15 11:49:35;;;;;;;16.67;9.53;;;13.60;99.90;;;;;;5056625;28;20531;-55
2022/11/15 11:52:10;;;;;;;15.70;9.13;;;13.60;99.90;;;;;;5056155;28;20440;-51
2022/11/15 11:54:46;;;;;;;13.90;8.20;;;13.60;99.90;;;;;;5056322;28;20424;-57
2022/11/15 11:57:24;;;;;;;29.50;16.30;;;13.70;99.90;;;;;;5056337;28;20482;-60
2022/11/15 11:59:57;;;;;;;18.53;10.97;;;13.70;99.90;;;;;;5056801;28;20692;-53
2022/11/15 12:02:29;;;;;;;12.53;9.50;;;13.80;99.90;;;;;;5057111;28;20491;-55
2022/11/15 12:05:05;;;;;;;14.93;9.63;;;13.80;99.90;;;;;;5044223;28;20499;-56
2022/11/15 12:07:34;;;;;;;14.70;8.87;;;13.90;99.90;;;;;;5056939;28;20512;-60
2022/11/15 12:10:14;;;;;;;16.53;9.60;;;14.00;99.90;;;;;;5056847;28;20479;-60
2022/11/15 12:12:48;;;;;;;17.20;10.10;;;14.00;99.90;;;;;;5056888;28;20424;-56
2022/11/15 12:15:18;;;;;;;16.83;10.30;;;14.00;99.90;;;;;;5056076;28;20440;-60
2022/11/15 12:17:46;;;;;;;16.13;9.20;;;14.00;99.90;;;;;;5056895;28;20444;-58
2022/11/15 12:20:20;;;;;;;15.87;9.70;;;14.00;99.90;;;;;;5056138;28;20479;-58
2022/11/15 12:22:54;;;;;;;14.77;8.90;;;14.10;99.90;;;;;;5056218;28;20454;-61
2022/11/15 12:25:26;;;;;;;17.27;11.97;;;14.10;99.90;;;;;;5055776;28;20424;-60
2022/11/15 12:27:57;;;;;;;17.67;10.03;;;14.20;99.90;;;;;;5055759;28;20452;-59
2022/11/15 12:30:26;;;;;;;19.80;11.30;;;14.20;99.90;;;;;;5055528;28;20448;-59
2022/11/15 12:32:56;;;;;;;15.77;8.40;;;14.30;99.90;;;;;;5054730;28;20440;-58
2022/11/15 12:35:32;;;;;;;14.70;10.23;;;14.30;99.90;;;;;;5055948;28;20440;-61
2022/11/15 12:40:37;;;;;;;18.40;10.70;;;14.40;99.90;;;;;;5074426;28;20486;-56
2022/11/15 12:43:25;;;;;;;13.93;9.47;;;14.40;99.90;;;;;;5075394;28;20449;-55
2022/11/15 12:45:56;;;;;;;18.50;9.80;;;14.40;99.90;;;;;;5075798;28;20467;-58
2022/11/15 12:49:02;;;;;;;23.87;14.50;;;14.50;99.90;;;;;;5075848;28;20431;-58
2022/11/15 12:52:08;;;;;;;22.73;11.60;;;14.40;99.90;;;;;;5075960;28;20463;-57
2022/11/15 12:54:59;;;;;;;16.37;9.77;;;14.50;99.90;;;;;;5073731;28;20455;-56
2022/11/15 12:57:40;;;;;;;16.93;9.57;;;14.50;99.90;;;;;;5075023;28;20519;-60
2022/11/15 13:00:44;;;;;;;20.20;9.40;;;14.50;99.90;;;;;;5075510;28;20497;-59
2022/11/15 13:03:34;;;;;;;17.20;10.23;;;14.50;99.90;;;;;;5075860;28;20466;-56
2022/11/15 13:06:09;;;;;;;15.07;9.47;;;14.50;99.90;;;;;;5075456;28;20419;-56
2022/11/15 13:08:48;;;;;;;18.63;10.87;;;14.50;99.90;;;;;;5076254;28;20442;-55
2022/11/15 13:11:46;;;;;;;16.07;9.90;;;14.50;99.90;;;;;;5076243;28;20554;-57
2022/11/15 13:14:45;;;;;;;22.67;10.53;;;14.50;99.90;;;;;;5076265;28;20474;-55